createdAt,value
2023-02-18T00:45:17.317Z,37.70
2023-02-18T00:48:03.851Z,37.80
2023-02-18T00:50:50.237Z,36.38
2023-02-18T00:53:36.062Z,39.38
2023-02-18T00:56:22.211Z,38.13
2023-02-18T00:59:08.178Z,41.20
2023-02-18T01:46:13.872Z,31.33
2023-02-18T01:49:01.505Z,35.50
2023-02-18T01:52:00.245Z,32.17
2023-02-18T01:54:56.342Z,31.92
2023-02-18T01:57:41.506Z,30.50
2023-02-18T02:46:09.645Z,27.90
2023-02-18T02:49:01.472Z,27.48
2023-02-18T02:52:10.279Z,26.85
2023-02-18T02:54:55.546Z,30.13
2023-02-18T02:57:47.212Z,28.20
2023-02-18T03:46:15.149Z,24.63
2023-02-18T03:49:02.851Z,23.65
2023-02-18T03:51:47.875Z,26.83
2023-02-18T03:54:33.255Z,26.73
2023-02-18T03:57:19.573Z,22.23
2023-02-18T04:45:52.109Z,19.90
2023-02-18T04:48:37.354Z,20.45
2023-02-18T04:51:22.705Z,21.13
2023-02-18T04:54:08.211Z,21.75
2023-02-18T04:56:54.106Z,22.17
2023-02-18T04:59:39.765Z,20.80
2023-02-18T05:46:37.751Z,18.97
2023-02-18T05:49:24.415Z,18.90
2023-02-18T05:52:11.244Z,17.17
2023-02-18T05:54:56.491Z,17.95
2023-02-18T05:57:42.036Z,16.73
2023-02-18T06:00:29.865Z,18.30
2023-02-18T06:03:15.310Z,17.95
2023-02-18T06:06:00.880Z,17.92
2023-02-18T06:08:46.135Z,17.98
2023-02-18T06:11:32.444Z,17.23
2023-02-18T06:14:18.723Z,17.30
2023-02-18T06:17:04.300Z,17.85
2023-02-18T06:19:49.997Z,18.60
2023-02-18T06:22:35.532Z,16.83
2023-02-18T06:25:20.825Z,15.30
2023-02-18T06:28:06.180Z,15.87
2023-02-18T06:30:52.095Z,17.17
2023-02-18T06:33:38.092Z,18.58
2023-02-18T06:36:23.343Z,18.45
2023-02-18T06:39:08.885Z,16.25
2023-02-18T06:41:54.532Z,17.03
2023-02-18T06:44:40.378Z,15.32
2023-02-18T06:47:25.935Z,15.88
2023-02-18T06:50:11.292Z,17.20
2023-02-18T06:52:57.329Z,16.67
2023-02-18T06:55:43.646Z,15.27
2023-02-18T06:58:31.329Z,14.85
2023-02-18T07:01:19.825Z,16.25
2023-02-18T07:04:06.251Z,17.38
2023-02-18T07:06:52.001Z,14.60
2023-02-18T07:09:38.197Z,15.20
2023-02-18T07:12:23.793Z,14.90
2023-02-18T07:15:10.396Z,15.00
2023-02-18T07:17:56.747Z,15.65
2023-02-18T07:20:45.112Z,13.93
2023-02-18T07:23:31.016Z,16.77
2023-02-18T07:26:17.905Z,15.65
2023-02-18T07:29:04.476Z,15.27
2023-02-18T07:31:51.762Z,14.30
2023-02-18T07:34:38.192Z,18.48
2023-02-18T07:37:24.789Z,15.73
2023-02-18T07:40:14.272Z,15.23
2023-02-18T07:43:04.004Z,14.25
2023-02-18T07:45:50.064Z,15.13
2023-02-18T07:48:36.610Z,15.52
2023-02-18T07:51:23.170Z,15.80
2023-02-18T07:54:09.190Z,14.70
2023-02-18T07:56:57.348Z,14.13
2023-02-18T07:59:43.468Z,14.10
2023-02-18T08:02:30.482Z,12.80
2023-02-18T08:05:16.920Z,14.10
2023-02-18T08:08:06.141Z,13.40
2023-02-18T08:10:54.783Z,14.10
2023-02-18T08:13:43.175Z,14.40
2023-02-18T08:16:31.690Z,14.15
2023-02-18T08:19:19.219Z,14.70
2023-02-18T08:22:05.052Z,14.70
2023-02-18T08:24:51.296Z,11.88
2023-02-18T08:27:37.052Z,12.23
2023-02-18T08:30:27.339Z,12.30
2023-02-18T08:33:13.092Z,6.63
2023-02-18T08:35:59.065Z,7.93
2023-02-18T08:38:44.574Z,6.35
2023-02-18T08:41:29.899Z,5.95
2023-02-18T08:44:15.354Z,7.18
2023-02-18T08:47:00.973Z,6.07
2023-02-18T08:49:46.529Z,8.60
2023-02-18T08:52:32.078Z,11.48
2023-02-18T08:55:20.796Z,8.15
2023-02-18T08:58:06.898Z,8.65
2023-02-18T09:00:53.130Z,6.97
2023-02-18T09:03:39.971Z,10.23
2023-02-18T09:06:25.609Z,10.40
2023-02-18T09:09:11.336Z,6.35
2023-02-18T09:11:57.288Z,6.35
2023-02-18T09:14:42.566Z,8.03
2023-02-18T09:17:29.113Z,9.90
2023-02-18T09:20:14.505Z,9.02
2023-02-18T09:23:02.511Z,10.50
2023-02-18T09:25:47.874Z,6.65
2023-02-18T09:28:34.512Z,7.27
2023-02-18T09:31:24.140Z,7.05
2023-02-18T09:34:09.984Z,7.38
2023-02-18T09:36:55.789Z,8.13
2023-02-18T09:39:41.394Z,7.18
2023-02-18T09:42:35.412Z,5.43
2023-02-18T09:45:26.810Z,8.85
2023-02-18T09:48:12.592Z,7.57
2023-02-18T09:50:59.283Z,8.27
2023-02-18T09:53:48.796Z,10.07
2023-02-18T09:56:40.412Z,7.33
2023-02-18T09:59:27.781Z,10.93
2023-02-18T10:02:24.196Z,10.00
2023-02-18T10:05:23.116Z,5.93
2023-02-18T10:08:50.807Z,5.45
2023-02-18T11:00:44.943Z,7.50
2023-02-18T11:03:42.965Z,3.95
2023-02-18T11:06:34.521Z,4.95
2023-02-18T11:09:26.894Z,4.25
2023-02-18T11:12:17.091Z,9.43
2023-02-18T11:15:14.823Z,5.83
2023-02-18T11:18:30.462Z,6.03
2023-02-18T11:21:21.419Z,5.25
2023-02-18T11:24:16.613Z,9.13
2023-02-18T11:27:02.520Z,9.65
2023-02-18T11:30:00.804Z,10.00
2023-02-18T11:32:50.286Z,6.18
2023-02-18T11:35:37.020Z,6.00
2023-02-18T11:38:50.323Z,4.82
2023-02-18T11:41:38.644Z,4.72
2023-02-18T11:44:29.579Z,7.40
2023-02-18T11:47:14.976Z,5.25
2023-02-18T11:50:09.432Z,6.20
2023-02-18T11:52:57.530Z,6.50
2023-02-18T11:55:59.949Z,4.78
2023-02-18T11:58:52.467Z,5.53
2023-02-18T12:01:50.571Z,4.30
2023-02-18T12:04:43.479Z,3.67
2023-02-18T12:07:43.274Z,6.43
2023-02-18T12:10:35.093Z,6.60
2023-02-18T12:13:31.655Z,4.33
2023-02-18T12:16:30.698Z,4.70
2023-02-18T12:19:26.012Z,4.72
2023-02-18T12:22:31.737Z,6.53
2023-02-18T12:25:16.983Z,4.35
2023-02-18T12:28:21.231Z,5.27
2023-02-18T12:31:21.014Z,4.00
2023-02-18T12:34:25.897Z,5.30
2023-02-18T12:37:27.218Z,4.43
2023-02-18T12:40:38.653Z,5.00
2023-02-18T12:43:26.927Z,4.50
2023-02-18T12:46:34.415Z,4.70
2023-02-18T12:49:31.384Z,4.18
2023-02-18T12:52:41.647Z,4.05
2023-02-18T12:55:41.459Z,4.57
2023-02-18T12:58:43.117Z,4.30
2023-02-18T13:02:01.181Z,9.85
2023-02-18T13:05:04.904Z,3.22
2023-02-18T13:08:07.291Z,3.75
2023-02-18T13:11:02.703Z,5.63
2023-02-18T13:13:59.091Z,3.63
2023-02-18T13:16:50.344Z,3.80
2023-02-18T13:19:55.229Z,7.53
2023-02-18T13:22:41.799Z,3.55
2023-02-18T13:25:42.201Z,3.80
2023-02-18T13:29:00.717Z,5.43
2023-02-18T13:32:24.275Z,2.75
2023-02-18T13:35:25.383Z,5.20
2023-02-18T13:38:20.022Z,5.18
2023-02-18T13:41:06.175Z,4.18
2023-02-18T13:43:51.319Z,4.20
2023-02-18T13:46:50.093Z,4.10
2023-02-18T13:49:39.800Z,5.20
2023-02-18T13:52:27.189Z,6.57
2023-02-18T13:55:23.115Z,5.20
2023-02-18T13:58:19.292Z,5.00
2023-02-18T14:01:11.818Z,6.68
2023-02-18T14:04:04.044Z,4.05
2023-02-18T14:07:27.767Z,5.38
2023-02-18T14:10:15.293Z,3.85
2023-02-18T14:13:52.759Z,3.67
2023-02-18T14:17:14.279Z,3.97
2023-02-18T14:19:59.724Z,4.45
2023-02-18T14:22:50.784Z,3.75
2023-02-18T14:25:43.045Z,8.93
2023-02-18T14:28:53.719Z,4.93
2023-02-18T14:31:49.169Z,4.00
2023-02-18T14:34:51.850Z,8.77
2023-02-18T14:38:10.545Z,5.05
2023-02-18T14:41:16.923Z,4.40
2023-02-18T14:44:41.216Z,8.87
2023-02-18T14:47:58.152Z,8.18
2023-02-18T14:50:50.052Z,5.38
2023-02-18T14:53:43.584Z,6.25
2023-02-18T14:56:30.144Z,4.50
2023-02-18T14:59:16.703Z,3.83
2023-02-18T15:02:02.804Z,7.57
2023-02-18T15:04:50.743Z,5.45
2023-02-18T15:07:37.365Z,3.22
2023-02-18T15:10:25.722Z,5.57
2023-02-18T15:13:29.685Z,4.33
2023-02-18T15:16:42.794Z,2.90
2023-02-18T15:19:35.948Z,3.50
2023-02-18T15:22:24.271Z,4.00
2023-02-18T15:25:13.245Z,3.83
2023-02-18T15:27:58.578Z,3.67
2023-02-18T15:30:45.469Z,4.47
2023-02-18T15:33:31.216Z,3.65
2023-02-18T15:36:16.831Z,4.35
2023-02-18T15:39:04.131Z,4.28
2023-02-18T15:42:09.494Z,4.27
2023-02-18T15:45:06.690Z,4.43
2023-02-18T15:47:57.998Z,3.75
2023-02-18T15:50:52.196Z,4.63
2023-02-18T15:53:40.736Z,2.78
2023-02-18T15:56:31.468Z,3.87
2023-02-18T15:59:20.696Z,3.88
2023-02-18T16:02:16.869Z,4.10
2023-02-18T16:05:05.428Z,3.45
2023-02-18T16:07:57.308Z,3.78
2023-02-18T16:10:48.003Z,3.67
2023-02-18T16:13:40.228Z,4.55
2023-02-18T16:16:44.014Z,5.57
2023-02-18T16:19:32.255Z,4.75
2023-02-18T16:22:39.012Z,3.50
2023-02-18T16:25:41.716Z,3.63
2023-02-18T16:28:32.847Z,4.50
2023-02-18T16:31:20.708Z,5.10
2023-02-18T16:34:06.961Z,3.97
2023-02-18T16:37:11.077Z,4.68
2023-02-18T16:40:00.165Z,4.70
2023-02-18T16:42:46.413Z,4.95
2023-02-18T16:45:49.175Z,4.75
2023-02-18T16:49:01.877Z,4.40
2023-02-18T16:51:48.949Z,5.07
2023-02-18T16:54:34.720Z,5.33
2023-02-18T16:57:19.969Z,4.80
2023-02-18T17:00:07.776Z,3.80
2023-02-18T17:02:57.008Z,3.33
2023-02-18T17:05:43.989Z,3.67
2023-02-18T17:08:29.571Z,4.57
2023-02-18T17:11:25.829Z,4.70
2023-02-18T17:14:15.346Z,3.88
2023-02-18T17:17:00.854Z,4.15
2023-02-18T17:19:46.417Z,5.20
2023-02-18T17:22:32.172Z,3.67
2023-02-18T17:25:30.677Z,5.60
2023-02-18T17:28:19.203Z,4.13
2023-02-18T17:31:05.063Z,4.43
2023-02-18T17:33:50.663Z,4.50
2023-02-18T17:36:35.858Z,4.30
2023-02-18T17:39:21.445Z,6.47
2023-02-18T17:42:11.282Z,5.85
2023-02-18T17:44:56.649Z,8.32
2023-02-18T17:47:41.854Z,6.05
2023-02-18T17:50:28.655Z,3.87
2023-02-18T17:53:15.253Z,5.40
2023-02-18T17:56:00.618Z,5.60
2023-02-18T17:58:46.676Z,6.25
2023-02-18T18:01:31.655Z,6.90
2023-02-18T18:04:18.796Z,5.77
2023-02-18T18:07:04.491Z,5.93
2023-02-18T18:09:49.901Z,4.75
2023-02-18T18:12:35.601Z,8.35
2023-02-18T18:15:34.743Z,4.22
2023-02-18T18:18:20.026Z,5.33
2023-02-18T18:21:05.646Z,5.50
2023-02-18T18:23:51.286Z,7.28
2023-02-18T18:26:36.595Z,5.40
2023-02-18T18:29:21.628Z,6.45
2023-02-18T18:32:06.936Z,7.57
2023-02-18T18:34:52.205Z,5.55
2023-02-18T18:37:37.723Z,7.10
2023-02-18T18:40:26.605Z,5.05
2023-02-18T18:43:24.287Z,3.22
2023-02-18T18:46:09.781Z,4.70
2023-02-18T18:48:55.175Z,5.93
2023-02-18T18:51:40.609Z,5.68
2023-02-18T18:54:26.007Z,4.53
2023-02-18T18:57:11.172Z,3.20
2023-02-18T18:59:56.528Z,3.83
2023-02-18T19:02:41.762Z,4.95
2023-02-18T19:05:33.597Z,4.03
2023-02-18T19:08:20.380Z,6.38
2023-02-18T19:11:05.957Z,4.97
2023-02-18T19:13:51.240Z,2.90
2023-02-18T19:16:39.197Z,6.03
2023-02-18T19:19:24.543Z,3.72
2023-02-18T19:22:09.793Z,4.45
2023-02-18T19:24:54.799Z,4.97
2023-02-18T19:27:41.994Z,3.97
2023-02-18T19:30:31.000Z,5.70
2023-02-18T19:33:17.377Z,5.88
2023-02-18T19:36:11.345Z,6.15
2023-02-18T19:38:57.771Z,4.28
2023-02-18T19:41:42.865Z,4.03
2023-02-18T19:44:33.867Z,4.78
2023-02-18T19:47:19.194Z,3.75
2023-02-18T19:50:06.283Z,6.05
2023-02-18T19:52:55.432Z,3.95
2023-02-18T19:55:40.747Z,3.70
2023-02-18T19:58:26.305Z,4.28
2023-02-18T20:01:16.457Z,6.82
2023-02-18T20:04:01.922Z,5.45
2023-02-18T20:06:47.142Z,6.28
2023-02-18T20:09:32.402Z,4.60
2023-02-18T20:12:17.576Z,3.78
2023-02-18T20:15:03.858Z,5.90
2023-02-18T20:17:49.816Z,4.85
2023-02-18T20:20:34.842Z,6.00
2023-02-18T20:23:20.183Z,4.27
2023-02-18T20:26:10.124Z,4.30
2023-02-18T20:28:56.461Z,6.40
2023-02-18T20:31:45.014Z,4.55
2023-02-18T20:34:31.205Z,4.00
2023-02-18T20:37:16.551Z,4.47
2023-02-18T20:40:01.827Z,5.25
2023-02-18T20:42:47.216Z,5.15
2023-02-18T20:45:32.568Z,4.30
2023-02-18T20:48:17.852Z,4.93
2023-02-18T20:51:10.508Z,5.30
2023-02-18T20:53:55.812Z,4.90
2023-02-18T20:56:42.267Z,4.88
2023-02-18T20:59:30.267Z,3.92
2023-02-18T21:02:16.713Z,7.05
2023-02-18T21:05:01.968Z,8.27
2023-02-18T21:07:47.259Z,7.90
2023-02-18T21:10:39.809Z,9.50
2023-02-18T21:13:25.989Z,9.75
2023-02-18T21:16:11.131Z,8.98
2023-02-18T21:18:56.457Z,10.30
2023-02-18T21:21:42.954Z,10.98
2023-02-18T21:24:28.532Z,11.07
2023-02-18T21:27:13.741Z,12.20
2023-02-18T21:30:00.620Z,11.55
2023-02-18T21:32:46.606Z,13.40
2023-02-18T21:35:35.893Z,10.43
2023-02-18T21:38:21.237Z,10.35
2023-02-18T21:41:06.605Z,10.55
2023-02-18T21:43:52.287Z,12.52
2023-02-18T21:46:39.672Z,11.63
2023-02-18T21:49:24.846Z,9.98
2023-02-18T21:52:10.146Z,12.70
2023-02-18T21:54:55.802Z,9.52
2023-02-18T21:57:40.887Z,11.05
2023-02-18T22:00:26.393Z,11.80
2023-02-18T22:03:12.254Z,10.60
2023-02-18T22:05:57.711Z,10.13
2023-02-18T22:08:43.542Z,9.45
2023-02-18T22:11:29.721Z,10.48
2023-02-18T22:14:17.064Z,10.70
2023-02-18T22:17:02.526Z,10.15
2023-02-18T22:19:48.770Z,13.13
2023-02-18T22:22:34.683Z,9.25
2023-02-18T22:25:19.846Z,10.10
2023-02-18T22:28:07.330Z,9.70
2023-02-18T22:30:52.569Z,9.25
2023-02-18T22:33:38.562Z,9.40
2023-02-18T22:36:26.194Z,8.40
2023-02-18T22:39:12.783Z,12.88
2023-02-18T22:41:57.739Z,8.37
2023-02-18T22:44:43.204Z,8.27
2023-02-18T22:47:28.486Z,10.70
2023-02-18T22:50:13.869Z,9.68
2023-02-18T22:52:59.315Z,9.35
2023-02-18T22:55:44.695Z,8.80
2023-02-18T22:58:31.701Z,8.95
2023-02-18T23:01:21.683Z,8.40
2023-02-18T23:04:10.423Z,11.60
2023-02-18T23:06:56.955Z,12.07
2023-02-18T23:09:42.391Z,9.63
2023-02-18T23:12:27.430Z,8.18
2023-02-18T23:15:14.210Z,9.40
2023-02-18T23:17:59.852Z,9.40
2023-02-18T23:21:03.695Z,10.18
2023-02-18T23:23:51.993Z,8.97
2023-02-18T23:26:37.545Z,8.52
2023-02-18T23:29:22.770Z,11.50
2023-02-18T23:32:08.223Z,10.15
2023-02-18T23:34:53.565Z,8.40
2023-02-18T23:37:57.387Z,9.23
2023-02-18T23:40:42.836Z,9.48
2023-02-18T23:43:30.689Z,7.55
2023-02-18T23:46:18.024Z,8.63
2023-02-18T23:49:04.125Z,9.13
2023-02-18T23:51:51.497Z,8.87
2023-02-18T23:54:36.495Z,7.63
2023-02-18T23:57:22.003Z,11.15
